createdAt,value
2022-09-16T00:00:43.728Z,312.67
2022-09-16T00:03:11.217Z,300.88
2022-09-16T00:05:48.833Z,304.65
2022-09-16T00:08:16.521Z,323.43
2022-09-16T00:10:43.921Z,313.80
2022-09-16T00:13:12.271Z,313.27
2022-09-16T00:15:45.635Z,336.40
2022-09-16T00:18:12.362Z,348.90
2022-09-16T00:20:45.043Z,363.13
2022-09-16T00:23:11.716Z,368.50
2022-09-16T00:25:38.333Z,392.83
2022-09-16T00:28:04.963Z,367.05
2022-09-16T00:30:31.557Z,378.30
2022-09-16T00:32:58.266Z,360.80
2022-09-16T00:35:24.842Z,364.77
2022-09-16T00:37:51.472Z,339.95
2022-09-16T00:40:18.189Z,341.75
2022-09-16T00:42:44.824Z,318.08
2022-09-16T00:45:17.968Z,299.38
2022-09-16T00:47:51.378Z,309.58
2022-09-16T00:50:30.205Z,306.60
2022-09-16T00:52:59.552Z,319.57
2022-09-16T00:55:37.150Z,346.63
2022-09-16T00:58:24.754Z,336.35
2022-09-16T01:00:54.111Z,336.50
2022-09-16T01:03:21.107Z,322.75
2022-09-16T01:05:49.041Z,331.73
2022-09-16T01:08:15.683Z,319.65
2022-09-16T01:10:43.005Z,329.95
2022-09-16T01:13:12.837Z,364.40
2022-09-16T01:16:00.541Z,348.27
2022-09-16T01:18:48.677Z,336.92
2022-09-16T01:21:47.483Z,331.73
2022-09-16T01:24:34.504Z,346.45
2022-09-16T01:27:46.109Z,354.20
2022-09-16T01:30:20.054Z,364.10
2022-09-16T01:33:01.366Z,332.17
2022-09-16T01:35:52.743Z,334.95
2022-09-16T01:38:37.878Z,316.48
2022-09-16T01:41:19.838Z,313.20
2022-09-16T01:44:12.543Z,327.40
2022-09-16T01:46:47.779Z,324.17
2022-09-16T01:49:20.238Z,327.57
2022-09-16T01:51:59.185Z,326.70
2022-09-16T01:55:06.862Z,328.63
2022-09-16T01:58:11.301Z,321.00
2022-09-16T02:00:42.745Z,343.98
2022-09-16T02:03:20.206Z,339.40
2022-09-16T02:05:53.829Z,325.85
2022-09-16T02:08:38.820Z,597.13
2022-09-16T02:11:09.806Z,536.78
2022-09-16T02:13:43.966Z,493.02
2022-09-16T02:16:26.890Z,439.65
2022-09-16T02:18:57.968Z,476.98
2022-09-16T02:21:27.623Z,479.23
2022-09-16T02:23:59.995Z,482.70
2022-09-16T02:26:36.946Z,489.02
2022-09-16T02:29:10.790Z,520.42
2022-09-16T02:31:39.118Z,765.78
2022-09-16T02:34:14.919Z,768.50
2022-09-16T02:36:45.657Z,774.92
2022-09-16T02:39:18.269Z,771.70
2022-09-16T02:41:47.117Z,777.57
2022-09-16T02:44:14.027Z,793.63
2022-09-16T02:47:06.896Z,783.05
2022-09-16T02:50:38.098Z,783.97
2022-09-16T02:53:24.778Z,770.45
2022-09-16T02:55:58.890Z,758.97
2022-09-16T02:58:25.549Z,766.83
2022-09-16T03:00:55.249Z,775.60
2022-09-16T03:03:22.409Z,781.67
2022-09-16T03:06:17.043Z,778.22
2022-09-16T03:08:45.241Z,789.50
2022-09-16T03:11:40.687Z,788.08
2022-09-16T03:14:30.558Z,780.40
2022-09-16T03:17:33.649Z,772.08
2022-09-16T03:20:18.837Z,743.13
2022-09-16T03:22:54.547Z,733.08
2022-09-16T03:25:27.113Z,738.88
2022-09-16T03:28:12.366Z,733.53
2022-09-16T03:30:50.261Z,728.08
2022-09-16T03:33:27.097Z,738.67
2022-09-16T03:35:59.895Z,721.05
2022-09-16T03:38:28.660Z,717.10
2022-09-16T03:40:55.607Z,706.90
2022-09-16T03:43:22.190Z,698.15
2022-09-16T03:45:48.992Z,686.80
2022-09-16T03:48:15.650Z,676.78
2022-09-16T03:50:42.316Z,661.25
2022-09-16T03:53:08.974Z,666.50
2022-09-16T03:55:35.608Z,663.92
2022-09-16T03:58:02.269Z,636.42
2022-09-16T04:00:29.204Z,651.28
2022-09-16T04:02:56.299Z,617.08
2022-09-16T04:05:23.006Z,598.93
2022-09-16T04:07:50.075Z,576.17
2022-09-16T04:10:17.016Z,586.92
2022-09-16T04:12:43.761Z,595.50
2022-09-16T04:15:10.771Z,596.75
2022-09-16T04:17:37.647Z,611.07
2022-09-16T04:20:05.922Z,620.95
2022-09-16T04:22:32.626Z,608.45
2022-09-16T04:24:59.272Z,630.65
2022-09-16T04:27:25.883Z,621.33
2022-09-16T04:29:52.522Z,622.27
2022-09-16T04:32:19.188Z,626.75
2022-09-16T04:34:45.929Z,625.33
2022-09-16T04:37:12.511Z,612.15
2022-09-16T04:39:39.212Z,628.22
2022-09-16T04:42:06.998Z,616.88
2022-09-16T04:44:35.095Z,634.53
2022-09-16T04:47:01.681Z,651.55
2022-09-16T04:49:28.214Z,639.07
2022-09-16T04:51:54.903Z,645.17
2022-09-16T04:54:21.566Z,638.95
2022-09-16T04:56:48.235Z,649.15
2022-09-16T04:59:15.192Z,630.63
2022-09-16T05:01:42.083Z,655.88
2022-09-16T05:04:12.934Z,648.65
2022-09-16T05:06:41.566Z,625.30
2022-09-16T05:09:10.460Z,603.63
2022-09-16T05:11:39.015Z,611.92
2022-09-16T05:14:17.237Z,596.40
2022-09-16T05:16:45.441Z,593.95
2022-09-16T05:19:14.439Z,572.22
2022-09-16T05:21:42.066Z,594.53
2022-09-16T05:24:11.526Z,593.15
2022-09-16T05:26:40.443Z,609.15
2022-09-16T05:29:11.149Z,598.72
2022-09-16T05:31:40.740Z,592.60
2022-09-16T05:34:11.356Z,611.08
2022-09-16T05:36:40.934Z,607.17
2022-09-16T05:41:48.998Z,601.45
2022-09-16T05:44:16.050Z,569.45
2022-09-16T05:46:43.921Z,587.65
2022-09-16T05:49:11.537Z,582.50
2022-09-16T05:51:39.451Z,580.83
2022-09-16T05:54:06.265Z,597.88
2022-09-16T05:56:33.308Z,602.38
2022-09-16T05:59:00.988Z,604.83
2022-09-16T06:01:33.093Z,578.70
2022-09-16T06:04:04.982Z,578.10
2022-09-16T06:06:36.901Z,588.00
2022-09-16T06:09:10.998Z,603.37
2022-09-16T06:11:41.661Z,574.63
2022-09-16T06:14:09.044Z,554.83
2022-09-16T06:16:42.749Z,573.95
2022-09-16T06:19:15.234Z,555.50
2022-09-16T06:21:45.562Z,503.35
2022-09-16T06:24:14.293Z,503.52
2022-09-16T06:26:45.642Z,535.75
2022-09-16T06:29:13.562Z,518.43
2022-09-16T06:31:40.722Z,517.50
2022-09-16T06:34:08.623Z,538.22
2022-09-16T06:36:42.721Z,535.90
2022-09-16T06:39:13.410Z,546.35
2022-09-16T06:41:40.096Z,557.00
2022-09-16T06:44:06.683Z,531.65
2022-09-16T06:46:33.455Z,552.63
2022-09-16T06:49:04.571Z,557.75
2022-09-16T06:51:33.108Z,536.83
2022-09-16T06:54:02.238Z,539.23
2022-09-16T06:56:30.284Z,538.83
2022-09-16T06:58:57.399Z,549.47
2022-09-16T07:01:29.740Z,544.65
2022-09-16T07:03:58.429Z,551.72
2022-09-16T07:06:45.233Z,544.55
2022-09-16T07:09:14.767Z,648.87
2022-09-16T07:11:41.507Z,627.35
2022-09-16T07:14:09.564Z,684.38
2022-09-16T07:16:36.141Z,694.17
2022-09-16T07:19:02.889Z,687.55
2022-09-16T07:21:30.737Z,704.25
2022-09-16T07:24:02.765Z,685.50
2022-09-16T07:26:35.229Z,677.28
2022-09-16T07:29:04.317Z,660.72
2022-09-16T07:31:33.864Z,671.25
2022-09-16T07:34:04.309Z,641.97
2022-09-16T07:36:38.792Z,647.28
2022-09-16T07:39:06.333Z,620.85
2022-09-16T07:41:38.460Z,621.85
2022-09-16T07:44:06.509Z,633.78
2022-09-16T07:46:35.486Z,632.70
2022-09-16T07:49:04.244Z,616.22
2022-09-16T07:51:31.493Z,628.03
2022-09-16T07:54:03.534Z,618.22
2022-09-16T07:56:35.260Z,614.20
2022-09-16T07:59:03.850Z,603.22
2022-09-16T08:01:33.417Z,583.85
2022-09-16T08:04:01.018Z,609.38
2022-09-16T08:06:30.623Z,580.78
2022-09-16T08:09:09.815Z,580.75
2022-09-16T08:11:49.755Z,594.72
2022-09-16T08:14:16.590Z,590.38
2022-09-16T08:16:46.639Z,610.05
2022-09-16T08:19:13.734Z,614.10
2022-09-16T08:21:40.357Z,608.03
2022-09-16T08:24:07.084Z,627.43
2022-09-16T08:26:33.684Z,620.45
2022-09-16T08:29:09.337Z,599.80
2022-09-16T08:31:37.533Z,593.50
2022-09-16T08:34:05.052Z,589.13
2022-09-16T08:36:37.539Z,599.85
2022-09-16T08:39:04.506Z,539.33
2022-09-16T08:41:37.045Z,543.70
2022-09-16T08:44:19.222Z,539.72
2022-09-16T08:46:56.035Z,533.15
2022-09-16T08:49:40.078Z,512.70
2022-09-16T08:52:14.465Z,553.17
2022-09-16T08:54:47.426Z,549.20
2022-09-16T08:57:22.394Z,528.67
2022-09-16T08:59:54.736Z,524.10
2022-09-16T09:02:38.804Z,526.90
2022-09-16T09:05:42.747Z,524.35
2022-09-16T09:08:30.715Z,538.80
2022-09-16T09:11:15.583Z,533.80
2022-09-16T09:14:12.589Z,539.20
2022-09-16T09:16:45.656Z,498.80
2022-09-16T09:19:56.062Z,516.15
2022-09-16T09:22:33.152Z,488.20
2022-09-16T09:25:39.623Z,506.58
2022-09-16T09:28:56.890Z,501.37
2022-09-16T09:31:35.033Z,485.63
2022-09-16T09:34:43.391Z,516.67
2022-09-16T09:37:27.152Z,523.42
2022-09-16T09:40:02.070Z,539.35
2022-09-16T09:42:43.672Z,663.08
2022-09-16T09:45:27.961Z,719.92
2022-09-16T09:48:03.605Z,720.30
2022-09-16T09:50:40.188Z,738.47
2022-09-16T09:53:07.084Z,732.90
2022-09-16T09:55:35.056Z,737.67
2022-09-16T09:58:24.253Z,731.90
2022-09-16T10:00:53.456Z,706.03
2022-09-16T10:03:20.359Z,695.47
2022-09-16T10:05:47.922Z,671.53
2022-09-16T10:08:17.680Z,622.00
2022-09-16T10:10:59.923Z,611.88
2022-09-16T10:13:29.850Z,558.47
2022-09-16T10:16:14.641Z,530.03
2022-09-16T10:18:42.410Z,542.30
2022-09-16T10:21:15.385Z,531.57
2022-09-16T10:23:53.011Z,577.08
2022-09-16T10:26:21.498Z,549.97
2022-09-16T10:29:16.019Z,585.95
2022-09-16T10:31:43.609Z,565.88
2022-09-16T10:34:36.103Z,530.25
2022-09-16T10:37:13.149Z,533.63
2022-09-16T10:39:43.359Z,554.37
2022-09-16T10:42:20.130Z,567.30
2022-09-16T10:44:48.334Z,557.35
2022-09-16T10:47:32.607Z,551.90
2022-09-16T10:50:05.722Z,543.78
2022-09-16T10:52:42.445Z,522.92
2022-09-16T10:55:35.353Z,556.03
2022-09-16T10:58:18.006Z,540.92
2022-09-16T11:01:14.249Z,492.77
2022-09-16T11:04:05.964Z,513.60
2022-09-16T11:07:04.564Z,531.38
2022-09-16T11:09:52.886Z,520.95
2022-09-16T11:12:44.364Z,524.55
2022-09-16T11:15:29.768Z,503.65
2022-09-16T11:18:14.820Z,469.93
2022-09-16T11:21:00.241Z,486.15
2022-09-16T11:24:02.758Z,442.77
2022-09-16T11:26:36.900Z,428.48
2022-09-16T11:29:18.524Z,438.75
2022-09-16T11:32:24.376Z,418.85
2022-09-16T11:35:05.073Z,404.58
2022-09-16T11:37:45.309Z,404.25
2022-09-16T11:40:47.832Z,403.00
2022-09-16T11:43:46.429Z,389.98
2022-09-16T11:46:43.723Z,415.42
2022-09-16T11:49:22.572Z,370.75
2022-09-16T11:52:09.407Z,345.13
2022-09-16T11:54:53.944Z,341.02
2022-09-16T11:57:31.124Z,347.00
2022-09-16T12:00:14.214Z,338.50
2022-09-16T12:02:58.451Z,329.83
2022-09-16T12:05:36.995Z,316.65
2022-09-16T12:08:12.965Z,314.85
2022-09-16T12:10:45.676Z,294.52
2022-09-16T12:13:21.361Z,299.27
2022-09-16T12:15:57.336Z,303.42
2022-09-16T12:18:43.087Z,283.88
2022-09-16T12:21:32.813Z,334.70
2022-09-16T12:24:11.881Z,301.35
2022-09-16T12:26:49.056Z,281.77
2022-09-16T12:29:20.197Z,307.92
2022-09-16T12:32:01.538Z,332.03
2022-09-16T12:34:37.654Z,305.10
2022-09-16T12:37:20.479Z,295.70
2022-09-16T12:39:50.067Z,289.25
2022-09-16T12:42:46.694Z,282.45
2022-09-16T12:45:30.433Z,299.92
2022-09-16T12:48:21.445Z,314.38
2022-09-16T12:54:51.154Z,310.52
2022-09-16T12:57:36.251Z,302.90
2022-09-16T13:00:12.241Z,278.92
2022-09-16T13:02:53.117Z,273.50
2022-09-16T13:05:40.201Z,263.23
2022-09-16T13:08:23.330Z,272.42
2022-09-16T13:11:28.424Z,246.70
2022-09-16T13:13:51.329Z,267.98
2022-09-16T13:16:38.433Z,256.45
2022-09-16T13:19:30.489Z,259.35
2022-09-16T13:22:17.471Z,233.18
2022-09-16T13:24:51.781Z,240.93
2022-09-16T13:27:34.593Z,216.97
2022-09-16T13:30:15.159Z,221.00
2022-09-16T13:32:58.508Z,187.30
2022-09-16T13:35:31.269Z,189.95
2022-09-16T13:38:01.834Z,176.97
2022-09-16T13:40:34.150Z,178.23
2022-09-16T13:43:13.413Z,226.68
2022-09-16T13:46:05.798Z,244.18
2022-09-16T13:48:56.448Z,313.67
2022-09-16T13:51:23.672Z,681.35
2022-09-16T13:53:52.404Z,733.87
2022-09-16T13:56:47.897Z,728.85
2022-09-16T13:59:38.218Z,723.72
2022-09-16T14:02:42.606Z,735.83
2022-09-16T14:05:43.072Z,758.33
2022-09-16T14:08:18.507Z,766.03
2022-09-16T14:10:48.292Z,748.38
2022-09-16T14:13:21.052Z,740.03
2022-09-16T14:15:54.338Z,737.72
2022-09-16T14:18:24.487Z,740.70
2022-09-16T14:21:01.406Z,724.92
2022-09-16T14:23:29.652Z,751.53
2022-09-16T14:25:56.381Z,751.78
2022-09-16T14:28:27.922Z,724.28
2022-09-16T14:30:57.261Z,708.15
2022-09-16T14:33:56.469Z,685.17
2022-09-16T14:36:27.104Z,680.90
2022-09-16T14:39:03.032Z,681.42
2022-09-16T14:42:02.738Z,674.10
2022-09-16T14:44:47.207Z,644.28
2022-09-16T14:47:49.685Z,603.00
2022-09-16T14:50:30.478Z,587.13
2022-09-16T14:52:59.518Z,542.67
2022-09-16T14:55:33.681Z,551.10
2022-09-16T14:58:00.747Z,502.13
2022-09-16T15:00:58.994Z,488.90
2022-09-16T15:03:30.145Z,444.98
2022-09-16T15:06:00.937Z,445.08
2022-09-16T15:08:42.569Z,454.25
2022-09-16T15:11:36.238Z,441.92
2022-09-16T15:14:09.194Z,435.45
2022-09-16T15:16:45.903Z,424.08
2022-09-16T15:19:28.753Z,439.02
2022-09-16T15:21:57.702Z,389.20
2022-09-16T15:24:28.852Z,346.08
2022-09-16T15:26:56.148Z,341.48
2022-09-16T15:29:22.675Z,338.52
2022-09-16T15:31:50.845Z,349.40
2022-09-16T15:34:23.348Z,365.38
2022-09-16T15:37:00.008Z,359.00
2022-09-16T15:39:37.662Z,261.83
2022-09-16T15:42:10.521Z,242.73
2022-09-16T15:44:43.230Z,240.52
2022-09-16T15:47:21.854Z,232.80
2022-09-16T15:50:05.350Z,249.13
2022-09-16T15:52:58.186Z,252.75
2022-09-16T15:55:49.727Z,259.63
2022-09-16T15:58:22.731Z,303.13
2022-09-16T16:01:04.519Z,311.20
2022-09-16T16:03:44.521Z,322.83
2022-09-16T16:06:12.548Z,319.98
2022-09-16T16:08:52.199Z,333.30
2022-09-16T16:11:25.619Z,349.48
2022-09-16T16:13:52.490Z,327.33
2022-09-16T16:16:22.639Z,324.27
2022-09-16T16:18:49.216Z,320.20
2022-09-16T16:21:17.141Z,328.83
2022-09-16T16:23:44.074Z,331.42
2022-09-16T16:26:14.098Z,327.63
2022-09-16T16:28:40.835Z,334.60
2022-09-16T16:31:18.363Z,327.27
2022-09-16T16:33:47.531Z,311.05
2022-09-16T16:36:19.084Z,315.92
2022-09-16T16:38:49.431Z,331.58
2022-09-16T16:41:23.448Z,325.10
2022-09-16T16:43:53.927Z,357.42
2022-09-16T16:46:20.705Z,349.15
2022-09-16T16:48:47.421Z,345.25
2022-09-16T16:51:16.855Z,355.75
2022-09-16T16:53:48.204Z,345.15
2022-09-16T16:56:15.737Z,354.05
2022-09-16T16:58:45.477Z,361.77
2022-09-16T17:01:14.949Z,355.80
2022-09-16T17:03:47.753Z,352.15
2022-09-16T17:06:14.433Z,353.77
2022-09-16T17:08:42.099Z,370.83
2022-09-16T17:11:10.152Z,365.30
2022-09-16T17:13:38.326Z,355.53
2022-09-16T17:16:05.557Z,365.88
2022-09-16T17:18:35.414Z,379.80
2022-09-16T17:21:11.449Z,380.90
2022-09-16T17:23:44.878Z,369.05
2022-09-16T17:26:18.577Z,364.95
2022-09-16T17:28:47.260Z,347.20
2022-09-16T17:31:20.406Z,334.83
2022-09-16T17:33:47.728Z,326.42
2022-09-16T17:36:24.082Z,317.52
2022-09-16T17:38:58.673Z,336.30
2022-09-16T17:41:29.060Z,332.90
2022-09-16T17:43:58.599Z,354.50
2022-09-16T17:46:35.241Z,350.15
2022-09-16T17:49:07.639Z,357.92
2022-09-16T17:51:38.073Z,423.52
2022-09-16T17:54:04.960Z,468.50
2022-09-16T17:56:34.164Z,439.35
2022-09-16T17:59:00.870Z,448.17
2022-09-16T18:01:30.878Z,435.10
2022-09-16T18:04:05.324Z,438.52
2022-09-16T18:06:36.326Z,419.75
2022-09-16T18:09:09.576Z,429.95
2022-09-16T18:11:42.058Z,432.50
2022-09-16T18:14:17.259Z,416.00
2022-09-16T18:16:47.812Z,401.00
2022-09-16T18:19:14.423Z,398.67
2022-09-16T18:21:40.976Z,411.33
2022-09-16T18:24:11.187Z,427.77
2022-09-16T18:26:38.409Z,415.45
2022-09-16T18:29:09.960Z,438.08
2022-09-16T18:31:41.844Z,429.95
2022-09-16T18:34:08.954Z,420.58
2022-09-16T18:36:37.518Z,420.20
2022-09-16T18:39:05.115Z,409.05
2022-09-16T18:41:36.398Z,424.13
2022-09-16T18:44:11.291Z,421.08
2022-09-16T18:46:38.821Z,411.45
2022-09-16T18:49:06.519Z,407.73
2022-09-16T18:51:38.721Z,389.63
2022-09-16T18:54:07.541Z,380.02
2022-09-16T18:56:35.869Z,411.05
2022-09-16T18:59:24.136Z,422.02
2022-09-16T19:01:52.972Z,405.55
2022-09-16T19:04:23.085Z,423.25
2022-09-16T19:06:57.033Z,377.85
2022-09-16T19:09:24.395Z,368.63
2022-09-16T19:11:57.881Z,367.65
2022-09-16T19:14:27.337Z,371.05
2022-09-16T19:16:54.519Z,388.98
2022-09-16T19:19:21.747Z,371.13
2022-09-16T19:21:48.788Z,376.57
2022-09-16T19:24:19.027Z,381.38
2022-09-16T19:26:51.291Z,367.40
2022-09-16T19:29:18.881Z,359.87
2022-09-16T19:31:48.040Z,385.67
2022-09-16T19:34:16.352Z,378.95
2022-09-16T19:36:43.437Z,387.30
2022-09-16T19:39:12.029Z,390.40
2022-09-16T19:41:39.620Z,384.55
2022-09-16T19:44:09.860Z,363.02
2022-09-16T19:46:37.907Z,361.23
2022-09-16T19:49:06.230Z,361.98
2022-09-16T19:51:33.154Z,385.23
2022-09-16T19:54:00.874Z,370.58
2022-09-16T19:56:33.047Z,371.60
2022-09-16T19:59:01.272Z,406.98
2022-09-16T20:01:30.550Z,395.10
2022-09-16T20:03:57.525Z,386.50
2022-09-16T20:06:34.833Z,388.73
2022-09-16T20:09:03.820Z,401.15
2022-09-16T20:11:32.951Z,378.25
2022-09-16T20:14:01.813Z,380.50
2022-09-16T20:16:31.222Z,394.02
2022-09-16T20:18:58.080Z,405.80
2022-09-16T20:21:26.635Z,400.88
2022-09-16T20:23:54.412Z,411.42
2022-09-16T20:26:22.432Z,412.27
2022-09-16T20:28:51.359Z,411.55
2022-09-16T20:31:24.043Z,425.30
2022-09-16T20:33:51.632Z,400.83
2022-09-16T20:36:21.300Z,392.53
2022-09-16T20:38:48.766Z,381.10
2022-09-16T20:41:19.793Z,393.42
2022-09-16T20:43:47.175Z,379.58
2022-09-16T20:46:16.864Z,403.90
2022-09-16T20:48:44.982Z,388.03
2022-09-16T20:51:14.420Z,398.98
2022-09-16T20:53:42.340Z,402.23
2022-09-16T20:56:14.672Z,395.42
2022-09-16T20:58:42.590Z,407.13
2022-09-16T21:01:14.879Z,450.23
2022-09-16T21:03:45.268Z,413.70
2022-09-16T21:06:14.594Z,413.98
2022-09-16T21:08:43.184Z,408.33
2022-09-16T21:11:15.503Z,400.80
2022-09-16T21:13:44.448Z,394.58
2022-09-16T21:16:14.669Z,422.35
2022-09-16T21:18:42.373Z,403.65
2022-09-16T21:21:13.444Z,396.40
2022-09-16T21:23:40.993Z,382.05
2022-09-16T21:26:13.562Z,395.45
2022-09-16T21:28:41.193Z,369.17
2022-09-16T21:31:13.802Z,364.85
2022-09-16T21:33:42.439Z,371.48
2022-09-16T21:36:14.147Z,367.15
2022-09-16T21:38:41.650Z,379.80
2022-09-16T21:41:14.708Z,380.58
2022-09-16T21:43:44.032Z,368.03
2022-09-16T21:46:13.133Z,358.15
2022-09-16T21:48:40.447Z,353.90
2022-09-16T21:51:10.240Z,354.02
2022-09-16T21:53:37.647Z,363.03
2022-09-16T21:56:06.099Z,362.02
2022-09-16T21:58:33.470Z,325.27
2022-09-16T22:01:09.641Z,317.02
2022-09-16T22:03:36.943Z,299.67
2022-09-16T22:06:04.911Z,296.67
2022-09-16T22:08:31.765Z,308.10
2022-09-16T22:11:07.719Z,300.92
2022-09-16T22:13:35.173Z,318.60
2022-09-16T22:16:02.226Z,318.10
2022-09-16T22:18:30.282Z,326.95
2022-09-16T22:21:03.938Z,325.65
2022-09-16T22:23:30.504Z,330.80
2022-09-16T22:25:57.005Z,334.80
2022-09-16T22:28:23.672Z,323.15
2022-09-16T22:30:50.253Z,325.60
2022-09-16T22:33:16.863Z,334.58
2022-09-16T22:35:46.549Z,336.38
2022-09-16T22:38:13.209Z,338.60
2022-09-16T22:40:39.779Z,342.48
2022-09-16T22:43:06.640Z,353.40
2022-09-16T22:45:33.226Z,361.95
2022-09-16T22:47:59.739Z,360.60
2022-09-16T22:50:26.499Z,358.67
2022-09-16T22:52:53.056Z,358.63
2022-09-16T22:55:19.746Z,347.77
2022-09-16T22:57:46.274Z,349.90
2022-09-16T23:00:13.377Z,343.90
2022-09-16T23:02:40.058Z,331.73
2022-09-16T23:05:07.404Z,334.10
2022-09-16T23:07:34.193Z,320.80
2022-09-16T23:10:00.745Z,331.77
2022-09-16T23:12:28.465Z,336.48
2022-09-16T23:14:55.060Z,347.25
2022-09-16T23:17:21.953Z,360.70
2022-09-16T23:19:48.543Z,375.45
2022-09-16T23:22:15.276Z,359.95
2022-09-16T23:24:41.975Z,341.85
2022-09-16T23:27:08.534Z,345.90
2022-09-16T23:29:35.102Z,354.08
2022-09-16T23:32:03.255Z,348.35
2022-09-16T23:34:29.921Z,352.33
2022-09-16T23:36:56.521Z,355.52
2022-09-16T23:39:23.115Z,358.35
2022-09-16T23:41:50.258Z,343.73
2022-09-16T23:44:17.240Z,359.92
2022-09-16T23:46:44.703Z,354.45
2022-09-16T23:49:11.494Z,359.37
2022-09-16T23:51:38.477Z,362.88
2022-09-16T23:54:05.117Z,369.37
2022-09-16T23:56:32.714Z,351.05
2022-09-16T23:59:00.827Z,358.52
